San Diego International Airport
KSAN : rendu visible

Aérodrome :











RETROUVEZ-NOUS SUR...

 
LOGIN :

S'inscrire | Disclaimer

   EN    FR    IT 

 









Légende :    VFR   VFR Marginal   IFR   IFR Intensif   IFR Très Intensif
Visi : 
Plafond : 
>= 8 km
>= 3000ft
5 à 8 km
1000 à 3000 ft
1500m à 5 km
500 à 1000 ft
800 à 1500m
200 à 500 ft
< 800m
< 200 ft
Symboles :   Orages  Brouillard  Fortes neiges  Fortes précipitations  Vent > 20 kt






- Altitude de l'aérodrome : 17 ft
- Code IATA : SAN


KSAN - San Diego International

DERNIER METAR :
  • 261651Z 29005KT 9SM FEW013 22/16 A2991 RMK AO2 SLP129 T02170156

METARs EXPIRÉS :
  • 261602Z 27004KT 9SM SCT013 21/15 A2992 RMK AO2 T02060150
  • 261551Z VRB03KT 9SM BKN011 21/16 A2992 RMK AO2 SLP131 T02060156
  • 261522Z 00000KT 8SM BKN010 20/15 A2992 RMK AO2 T02000150
  • 261451Z VRB03KT 9SM OVC009 19/15 A2991 RMK AO2 SLP128 T01940150 50008

TAF KSAN
Valide du 26 à 16h jusqu'au 27 à 18h UTC


261611Z 2616/2718 VRB03KT P6SM SCT015
FM261700 29010KT P6SM SKC
FM270300 VRB04KT P6SM SCT008
FM270500 VRB03KT 6SM BR OVC007
FM271600 VRB03KT 6SM HZ SCT009
FIR KZLA / Amérique du Nord



MET'MAP, la Météo Aéronautique d'un coup d'oeil ! - Copyright ORBIFLY Décembre 2007 - Disclaimer

ORBIFLY MET'MAP TEAM :

Programmation & Développement : Alexandra Zaïnal
Sur une idée originale de : Baudouin d'Aumeries
Assistance à la programmation : Marc-Olivier Méhu
Soutien technique & logistique : Manuel Goepfert

Contact : metmap@orbifly.com




SOURCES & CREDITS :

   NOAA       Earth
Advisory